sensor_id;sensor_type;location;lat;lon;timestamp;pressure;altitude;pressure_sealevel;temperature;humidity
43621;BME280;29213;50.770;7.298;2023-02-07T00:01:54;103175.31;;;-1.55;58.15
43621;BME280;29213;50.770;7.298;2023-02-07T00:04:19;103188.34;;;-1.50;58.01
43621;BME280;29213;50.770;7.298;2023-02-07T00:06:45;103215.31;;;-1.47;58.21
43621;BME280;29213;50.770;7.298;2023-02-07T00:09:11;103205.84;;;-1.57;57.97
43621;BME280;29213;50.770;7.298;2023-02-07T00:11:37;103183.47;;;-1.78;58.39
43621;BME280;29213;50.770;7.298;2023-02-07T00:14:05;103209.34;;;-1.58;58.64
43621;BME280;29213;50.770;7.298;2023-02-07T00:16:31;103109.03;;;-2.17;58.77
43621;BME280;29213;50.770;7.298;2023-02-07T00:18:57;103160.06;;;-1.89;58.86
43621;BME280;29213;50.770;7.298;2023-02-07T00:21:24;103167.81;;;-1.83;58.43
43621;BME280;29213;50.770;7.298;2023-02-07T00:23:51;103201.50;;;-1.56;58.75
43621;BME280;29213;50.770;7.298;2023-02-07T00:26:19;103199.72;;;-1.56;58.82
43621;BME280;29213;50.770;7.298;2023-02-07T00:28:45;103161.66;;;-1.76;58.54
43621;BME280;29213;50.770;7.298;2023-02-07T00:31:17;103201.44;;;-1.55;58.30
43621;BME280;29213;50.770;7.298;2023-02-07T00:33:44;103213.63;;;-1.54;58.37
43621;BME280;29213;50.770;7.298;2023-02-07T00:36:13;103174.00;;;-1.90;58.66
43621;BME280;29213;50.770;7.298;2023-02-07T00:38:39;103206.81;;;-1.64;58.29
43621;BME280;29213;50.770;7.298;2023-02-07T00:41:04;103186.09;;;-1.80;58.25
43621;BME280;29213;50.770;7.298;2023-02-07T00:43:30;103156.72;;;-2.02;58.60
43621;BME280;29213;50.770;7.298;2023-02-07T00:46:01;103204.22;;;-1.66;58.71
43621;BME280;29213;50.770;7.298;2023-02-07T00:48:28;103199.00;;;-1.67;59.30
43621;BME280;29213;50.770;7.298;2023-02-07T00:50:54;103207.72;;;-1.67;58.66
43621;BME280;29213;50.770;7.298;2023-02-07T00:53:19;103081.53;;;-2.49;58.33
43621;BME280;29213;50.770;7.298;2023-02-07T00:55:45;103173.19;;;-1.95;58.43
43621;BME280;29213;50.770;7.298;2023-02-07T00:58:10;103193.13;;;-1.88;58.57
43621;BME280;29213;50.770;7.298;2023-02-07T01:00:36;103182.69;;;-1.88;58.61
43621;BME280;29213;50.770;7.298;2023-02-07T01:03:01;103139.38;;;-2.08;58.25
43621;BME280;29213;50.770;7.298;2023-02-07T01:05:27;103207.75;;;-1.70;58.40
43621;BME280;29213;50.770;7.298;2023-02-07T01:07:52;103174.84;;;-1.87;58.18
43621;BME280;29213;50.770;7.298;2023-02-07T01:10:17;103166.19;;;-1.90;58.14
43621;BME280;29213;50.770;7.298;2023-02-07T01:12:43;103167.97;;;-1.94;57.96
43621;BME280;29213;50.770;7.298;2023-02-07T01:15:08;103135.06;;;-2.12;58.34
43621;BME280;29213;50.770;7.298;2023-02-07T01:17:34;103163.59;;;-1.93;58.18
43621;BME280;29213;50.770;7.298;2023-02-07T01:19:59;103202.56;;;-1.73;57.85
43621;BME280;29213;50.770;7.298;2023-02-07T01:22:26;103207.81;;;-1.76;58.12
43621;BME280;29213;50.770;7.298;2023-02-07T01:24:52;103190.50;;;-1.85;57.86
43621;BME280;29213;50.770;7.298;2023-02-07T01:27:19;103168.00;;;-1.97;58.22
43621;BME280;29213;50.770;7.298;2023-02-07T01:29:44;103108.44;;;-2.42;58.00
43621;BME280;29213;50.770;7.298;2023-02-07T01:32:10;103196.72;;;-1.95;57.97
43621;BME280;29213;50.770;7.298;2023-02-07T01:34:35;103194.16;;;-2.02;58.12
43621;BME280;29213;50.770;7.298;2023-02-07T01:37:01;103188.97;;;-2.05;57.78
43621;BME280;29213;50.770;7.298;2023-02-07T01:39:27;103176.88;;;-2.14;58.14
43621;BME280;29213;50.770;7.298;2023-02-07T01:41:52;103193.28;;;-1.99;58.18
43621;BME280;29213;50.770;7.298;2023-02-07T01:46:46;103071.31;;;-2.72;58.34
43621;BME280;29213;50.770;7.298;2023-02-07T01:49:14;103156.13;;;-2.26;58.15
43621;BME280;29213;50.770;7.298;2023-02-07T01:51:45;103136.28;;;-2.44;58.09
43621;BME280;29213;50.770;7.298;2023-02-07T01:54:12;103149.25;;;-2.35;58.64
43621;BME280;29213;50.770;7.298;2023-02-07T01:56:42;103184.75;;;-2.15;58.81
43621;BME280;29213;50.770;7.298;2023-02-07T01:59:09;103096.50;;;-2.65;58.53
43621;BME280;29213;50.770;7.298;2023-02-07T02:01:35;103122.41;;;-2.49;58.33
43621;BME280;29213;50.770;7.298;2023-02-07T02:04:01;103155.22;;;-2.20;58.34
43621;BME280;29213;50.770;7.298;2023-02-07T02:06:29;103167.31;;;-2.13;58.22
43621;BME280;29213;50.770;7.298;2023-02-07T02:08:57;103101.50;;;-2.46;58.59
43621;BME280;29213;50.770;7.298;2023-02-07T02:14:17;103156.84;;;-2.13;57.93
43621;BME280;29213;50.770;7.298;2023-02-07T02:22:54;103140.44;;;-2.24;58.50
43621;BME280;29213;50.770;7.298;2023-02-07T02:25:40;103165.59;;;-2.16;57.96
43621;BME280;29213;50.770;7.298;2023-02-07T02:34:03;103052.41;;;-2.93;57.75
43621;BME280;29213;50.770;7.298;2023-02-07T02:41:57;103093.94;;;-2.71;57.66
43621;BME280;29213;50.770;7.298;2023-02-07T02:44:30;103112.16;;;-2.65;57.94
43621;BME280;29213;50.770;7.298;2023-02-07T02:46:58;103136.34;;;-2.47;58.18
43621;BME280;29213;50.770;7.298;2023-02-07T02:49:25;103100.00;;;-2.72;58.04
43621;BME280;29213;50.770;7.298;2023-02-07T02:51:51;103109.59;;;-2.73;58.26
43621;BME280;29213;50.770;7.298;2023-02-07T02:54:29;103123.41;;;-2.63;57.86
43621;BME280;29213;50.770;7.298;2023-02-07T02:57:23;103083.66;;;-2.87;58.98
43621;BME280;29213;50.770;7.298;2023-02-07T03:00:17;103149.34;;;-2.44;58.61
43621;BME280;29213;50.770;7.298;2023-02-07T03:06:02;103110.44;;;-2.72;58.03
43621;BME280;29213;50.770;7.298;2023-02-07T03:08:40;103114.75;;;-2.67;57.75
43621;BME280;29213;50.770;7.298;2023-02-07T03:11:15;103145.94;;;-2.53;57.82
43621;BME280;29213;50.770;7.298;2023-02-07T03:13:58;103145.97;;;-2.56;57.99
43621;BME280;29213;50.770;7.298;2023-02-07T03:19:23;103127.81;;;-2.67;58.10
43621;BME280;29213;50.770;7.298;2023-02-07T03:21:58;103040.50;;;-3.24;58.02
43621;BME280;29213;50.770;7.298;2023-02-07T03:24:34;103129.59;;;-2.73;58.04
43621;BME280;29213;50.770;7.298;2023-02-07T03:27:02;103130.47;;;-2.71;58.02
43621;BME280;29213;50.770;7.298;2023-02-07T03:29:29;103101.03;;;-2.89;58.25
43621;BME280;29213;50.770;7.298;2023-02-07T03:31:59;103112.28;;;-2.82;58.16
43621;BME280;29213;50.770;7.298;2023-02-07T03:34:32;103144.34;;;-2.69;57.83
43621;BME280;29213;50.770;7.298;2023-02-07T03:37:15;103115.84;;;-2.88;58.23
43621;BME280;29213;50.770;7.298;2023-02-07T03:39:42;103074.34;;;-3.16;58.30
43621;BME280;29213;50.770;7.298;2023-02-07T03:42:41;103123.66;;;-2.89;58.04
43621;BME280;29213;50.770;7.298;2023-02-07T03:45:16;103092.47;;;-3.03;57.93
43621;BME280;29213;50.770;7.298;2023-02-07T03:47:43;103109.78;;;-2.95;58.15
43621;BME280;29213;50.770;7.298;2023-02-07T03:50:08;103053.59;;;-3.31;57.92
43621;BME280;29213;50.770;7.298;2023-02-07T03:52:34;103116.72;;;-2.92;58.13
43621;BME280;29213;50.770;7.298;2023-02-07T03:54:59;103090.78;;;-3.11;58.11
43621;BME280;29213;50.770;7.298;2023-02-07T03:57:24;103033.75;;;-3.47;58.01
43621;BME280;29213;50.770;7.298;2023-02-07T03:59:50;103137.53;;;-2.86;58.02
43621;BME280;29213;50.770;7.298;2023-02-07T04:02:15;103114.13;;;-2.95;57.87
43621;BME280;29213;50.770;7.298;2023-02-07T04:04:41;103065.75;;;-3.29;57.95
43621;BME280;29213;50.770;7.298;2023-02-07T04:07:06;103120.25;;;-2.99;58.00
43621;BME280;29213;50.770;7.298;2023-02-07T04:09:31;103089.97;;;-3.16;58.04
43621;BME280;29213;50.770;7.298;2023-02-07T04:11:58;102873.81;;;-4.41;57.82
43621;BME280;29213;50.770;7.298;2023-02-07T04:14:23;103129.72;;;-2.89;57.98
43621;BME280;29213;50.770;7.298;2023-02-07T04:16:49;103121.09;;;-2.96;57.93
43621;BME280;29213;50.770;7.298;2023-02-07T04:19:15;103076.97;;;-3.19;58.19
43621;BME280;29213;50.770;7.298;2023-02-07T04:21:41;103134.09;;;-2.89;57.94
43621;BME280;29213;50.770;7.298;2023-02-07T04:24:06;103110.72;;;-3.03;58.22
43621;BME280;29213;50.770;7.298;2023-02-07T04:26:32;103135.03;;;-2.98;57.96
43621;BME280;29213;50.770;7.298;2023-02-07T04:28:57;103136.78;;;-3.00;57.63
43621;BME280;29213;50.770;7.298;2023-02-07T04:31:23;103102.25;;;-3.30;57.19
43621;BME280;29213;50.770;7.298;2023-02-07T04:33:48;103048.63;;;-3.69;57.72
43621;BME280;29213;50.770;7.298;2023-02-07T04:36:14;103140.34;;;-3.14;57.71
43621;BME280;29213;50.770;7.298;2023-02-07T04:38:39;103105.72;;;-3.33;57.69
43621;BME280;29213;50.770;7.298;2023-02-07T04:41:05;103131.75;;;-3.28;57.77
43621;BME280;29213;50.770;7.298;2023-02-07T04:43:32;103096.28;;;-3.50;57.46
43621;BME280;29213;50.770;7.298;2023-02-07T04:45:58;103109.28;;;-3.45;57.66
43621;BME280;29213;50.770;7.298;2023-02-07T04:48:23;103136.97;;;-3.27;57.48
43621;BME280;29213;50.770;7.298;2023-02-07T04:50:49;103092.84;;;-3.56;57.66
43621;BME280;29213;50.770;7.298;2023-02-07T04:53:14;103030.56;;;-3.94;57.48
43621;BME280;29213;50.770;7.298;2023-02-07T04:55:40;103139.59;;;-3.30;57.96
43621;BME280;29213;50.770;7.298;2023-02-07T04:58:06;103044.38;;;-3.85;57.84
43621;BME280;29213;50.770;7.298;2023-02-07T05:00:32;103132.69;;;-3.34;57.70
43621;BME280;29213;50.770;7.298;2023-02-07T05:02:58;103138.78;;;-3.37;57.47
43621;BME280;29213;50.770;7.298;2023-02-07T05:05:24;103130.13;;;-3.45;57.65
43621;BME280;29213;50.770;7.298;2023-02-07T05:07:49;103019.34;;;-4.08;57.89
43621;BME280;29213;50.770;7.298;2023-02-07T05:10:15;103092.91;;;-3.67;58.07
43621;BME280;29213;50.770;7.298;2023-02-07T05:12:40;103131.91;;;-3.52;57.76
43621;BME280;29213;50.770;7.298;2023-02-07T05:15:06;103133.59;;;-3.44;57.71
43621;BME280;29213;50.770;7.298;2023-02-07T05:17:31;103137.09;;;-3.44;57.45
43621;BME280;29213;50.770;7.298;2023-02-07T05:20:01;103081.69;;;-3.82;57.77
43621;BME280;29213;50.770;7.298;2023-02-07T05:22:26;103121.53;;;-3.59;57.61
43621;BME280;29213;50.770;7.298;2023-02-07T05:24:52;103093.00;;;-3.81;57.82
43621;BME280;29213;50.770;7.298;2023-02-07T05:27:17;103146.66;;;-3.51;57.83
43621;BME280;29213;50.770;7.298;2023-02-07T05:29:43;103031.53;;;-4.18;57.87
43621;BME280;29213;50.770;7.298;2023-02-07T05:32:11;103144.97;;;-3.61;58.14
43621;BME280;29213;50.770;7.298;2023-02-07T05:34:56;103087.81;;;-3.91;57.97
43621;BME280;29213;50.770;7.298;2023-02-07T05:37:21;103076.59;;;-4.02;57.73
43621;BME280;29213;50.770;7.298;2023-02-07T05:39:47;103116.47;;;-3.88;57.47
43621;BME280;29213;50.770;7.298;2023-02-07T05:42:12;103104.38;;;-4.04;57.71
43621;BME280;29213;50.770;7.298;2023-02-07T05:44:37;103005.69;;;-4.65;57.60
43621;BME280;29213;50.770;7.298;2023-02-07T05:47:03;103032.53;;;-4.47;57.42
43621;BME280;29213;50.770;7.298;2023-02-07T05:49:28;103064.53;;;-4.28;58.03
43621;BME280;29213;50.770;7.298;2023-02-07T05:51:53;103139.00;;;-3.77;58.13
43621;BME280;29213;50.770;7.298;2023-02-07T05:54:19;103067.13;;;-4.22;58.10
43621;BME280;29213;50.770;7.298;2023-02-07T05:56:45;103122.56;;;-3.96;58.07
43621;BME280;29213;50.770;7.298;2023-02-07T05:59:10;103123.47;;;-4.10;58.08
43621;BME280;29213;50.770;7.298;2023-02-07T06:01:35;103120.91;;;-4.15;57.88
43621;BME280;29213;50.770;7.298;2023-02-07T06:04:01;103111.34;;;-4.20;58.18
43621;BME280;29213;50.770;7.298;2023-02-07T06:06:26;103174.59;;;-3.87;58.21
43621;BME280;29213;50.770;7.298;2023-02-07T06:08:52;103130.44;;;-4.14;58.15
43621;BME280;29213;50.770;7.298;2023-02-07T06:11:17;103169.41;;;-3.92;58.35
43621;BME280;29213;50.770;7.298;2023-02-07T06:13:42;103070.69;;;-4.48;58.43
43621;BME280;29213;50.770;7.298;2023-02-07T06:16:08;103141.69;;;-4.05;58.31
43621;BME280;29213;50.770;7.298;2023-02-07T06:18:35;103089.75;;;-4.43;58.07
43621;BME280;29213;50.770;7.298;2023-02-07T06:21:00;103155.56;;;-4.03;57.99
43621;BME280;29213;50.770;7.298;2023-02-07T06:23:26;103167.72;;;-4.07;57.58
43621;BME280;29213;50.770;7.298;2023-02-07T06:25:51;103067.28;;;-4.78;57.48
43621;BME280;29213;50.770;7.298;2023-02-07T06:28:16;103170.34;;;-4.24;57.63
43621;BME280;29213;50.770;7.298;2023-02-07T06:30:42;103128.78;;;-4.54;57.99
43621;BME280;29213;50.770;7.298;2023-02-07T06:33:07;103144.41;;;-4.80;58.52
43621;BME280;29213;50.770;7.298;2023-02-07T06:35:33;103058.63;;;-5.27;59.26
43621;BME280;29213;50.770;7.298;2023-02-07T06:37:58;103177.34;;;-4.48;59.67
43621;BME280;29213;50.770;7.298;2023-02-07T06:40:23;103167.81;;;-4.49;59.61
43621;BME280;29213;50.770;7.298;2023-02-07T06:42:49;103151.34;;;-4.54;59.56
43621;BME280;29213;50.770;7.298;2023-02-07T06:45:14;103137.44;;;-4.56;59.31
43621;BME280;29213;50.770;7.298;2023-02-07T06:47:40;103129.66;;;-4.58;59.08
43621;BME280;29213;50.770;7.298;2023-02-07T06:50:05;103147.00;;;-4.47;58.79
43621;BME280;29213;50.770;7.298;2023-02-07T06:52:30;103199.84;;;-4.16;58.97
43621;BME280;29213;50.770;7.298;2023-02-07T06:54:56;103159.97;;;-4.36;58.53
43621;BME280;29213;50.770;7.298;2023-02-07T06:57:21;103166.03;;;-4.34;58.60
43621;BME280;29213;50.770;7.298;2023-02-07T06:59:46;103161.69;;;-4.29;58.33
43621;BME280;29213;50.770;7.298;2023-02-07T07:02:12;103217.19;;;-3.99;58.43
43621;BME280;29213;50.770;7.298;2023-02-07T07:04:37;103204.19;;;-4.21;58.07
43621;BME280;29213;50.770;7.298;2023-02-07T07:07:03;103143.53;;;-4.54;58.78
43621;BME280;29213;50.770;7.298;2023-02-07T07:09:29;103227.59;;;-4.02;58.72
43621;BME280;29213;50.770;7.298;2023-02-07T07:11:54;103205.06;;;-4.19;58.73
43621;BME280;29213;50.770;7.298;2023-02-07T07:14:19;103216.34;;;-4.17;58.34
43621;BME280;29213;50.770;7.298;2023-02-07T07:16:45;103237.13;;;-3.95;58.07
43621;BME280;29213;50.770;7.298;2023-02-07T07:19:11;103198.09;;;-4.14;58.13
43621;BME280;29213;50.770;7.298;2023-02-07T07:21:36;103195.53;;;-4.17;58.30
43621;BME280;29213;50.770;7.298;2023-02-07T07:24:02;103211.97;;;-4.11;58.34
43621;BME280;29213;50.770;7.298;2023-02-07T07:26:27;103216.31;;;-4.07;58.41
43621;BME280;29213;50.770;7.298;2023-02-07T07:28:53;103255.34;;;-3.84;57.66
43621;BME280;29213;50.770;7.298;2023-02-07T07:31:22;103250.09;;;-3.81;57.93
43621;BME280;29213;50.770;7.298;2023-02-07T07:33:48;103242.28;;;-3.78;59.29
43621;BME280;29213;50.770;7.298;2023-02-07T07:36:13;103224.97;;;-3.96;59.11
43621;BME280;29213;50.770;7.298;2023-02-07T07:38:39;103146.13;;;-4.40;58.76
43621;BME280;29213;50.770;7.298;2023-02-07T07:41:04;103150.41;;;-4.17;59.67
43621;BME280;29213;50.770;7.298;2023-02-07T07:43:30;103223.13;;;-3.63;58.95
43621;BME280;29213;50.770;7.298;2023-02-07T07:45:56;103249.97;;;-3.39;58.12
43621;BME280;29213;50.770;7.298;2023-02-07T07:48:23;103219.69;;;-3.66;57.89
43621;BME280;29213;50.770;7.298;2023-02-07T07:50:49;103204.94;;;-3.77;58.07
43621;BME280;29213;50.770;7.298;2023-02-07T07:53:15;103250.91;;;-3.49;58.13
43621;BME280;29213;50.770;7.298;2023-02-07T07:55:41;103210.16;;;-3.72;57.99
43621;BME280;29213;50.770;7.298;2023-02-07T07:58:06;103172.00;;;-3.95;58.07
43621;BME280;29213;50.770;7.298;2023-02-07T08:00:32;103249.16;;;-3.45;58.36
43621;BME280;29213;50.770;7.298;2023-02-07T08:02:58;103177.22;;;-3.89;58.47
43621;BME280;29213;50.770;7.298;2023-02-07T08:05:23;103217.97;;;-3.72;58.58
43621;BME280;29213;50.770;7.298;2023-02-07T08:07:48;103142.59;;;-4.16;59.19
43621;BME280;29213;50.770;7.298;2023-02-07T08:10:15;103186.75;;;-3.81;59.01
43621;BME280;29213;50.770;7.298;2023-02-07T08:12:40;103149.44;;;-3.90;58.99
43621;BME280;29213;50.770;7.298;2023-02-07T08:15:06;103182.31;;;-3.54;58.84
43621;BME280;29213;50.770;7.298;2023-02-07T08:17:34;103137.22;;;-3.74;59.03
43621;BME280;29213;50.770;7.298;2023-02-07T08:20:00;103202.97;;;-3.20;58.53
43621;BME280;29213;50.770;7.298;2023-02-07T08:22:25;103250.53;;;-2.79;58.59
43621;BME280;29213;50.770;7.298;2023-02-07T08:24:50;103209.72;;;-2.88;58.43
43621;BME280;29213;50.770;7.298;2023-02-07T08:27:16;103225.25;;;-2.69;57.66
43621;BME280;29213;50.770;7.298;2023-02-07T08:29:41;103212.19;;;-2.69;57.88
43621;BME280;29213;50.770;7.298;2023-02-07T08:32:07;103264.91;;;-2.27;57.48
43621;BME280;29213;50.770;7.298;2023-02-07T08:34:32;103177.41;;;-2.70;57.44
43621;BME280;29213;50.770;7.298;2023-02-07T08:37:03;103282.91;;;-1.95;57.09
43621;BME280;29213;50.770;7.298;2023-02-07T08:39:29;103239.47;;;-2.03;57.03
43621;BME280;29213;50.770;7.298;2023-02-07T08:41:54;103284.34;;;-1.66;57.08
43621;BME280;29213;50.770;7.298;2023-02-07T08:44:20;103252.22;;;-1.73;56.64
43621;BME280;29213;50.770;7.298;2023-02-07T08:46:45;103155.22;;;-2.20;56.28
43621;BME280;29213;50.770;7.298;2023-02-07T08:49:10;103238.94;;;-1.56;56.46
43621;BME280;29213;50.770;7.298;2023-02-07T08:51:36;103190.41;;;-1.77;56.11
43621;BME280;29213;50.770;7.298;2023-02-07T08:54:01;103140.94;;;-1.91;56.38
43621;BME280;29213;50.770;7.298;2023-02-07T08:56:27;103224.69;;;-1.33;56.77
43621;BME280;29213;50.770;7.298;2023-02-07T08:58:52;103184.03;;;-1.53;56.24
43621;BME280;29213;50.770;7.298;2023-02-07T09:01:17;103214.94;;;-1.18;56.57
43621;BME280;29213;50.770;7.298;2023-02-07T09:03:43;103253.69;;;-0.86;56.56
43621;BME280;29213;50.770;7.298;2023-02-07T09:06:08;103193.13;;;-1.19;56.84
43621;BME280;29213;50.770;7.298;2023-02-07T09:08:34;103168.00;;;-1.29;56.72
43621;BME280;29213;50.770;7.298;2023-02-07T09:11:00;103217.13;;;-0.89;57.29
43621;BME280;29213;50.770;7.298;2023-02-07T09:13:26;103235.75;;;-0.54;59.07
43621;BME280;29213;50.770;7.298;2023-02-07T09:15:53;103252.34;;;-0.55;56.25
43621;BME280;29213;50.770;7.298;2023-02-07T09:18:19;103259.47;;;-0.63;56.29
43621;BME280;29213;50.770;7.298;2023-02-07T09:20:45;103235.31;;;-0.81;55.84
43621;BME280;29213;50.770;7.298;2023-02-07T09:23:10;103236.19;;;-0.82;56.22
43621;BME280;29213;50.770;7.298;2023-02-07T09:25:52;103195.31;;;-0.89;56.08
43621;BME280;29213;50.770;7.298;2023-02-07T09:28:19;103242.09;;;-0.68;55.65
43621;BME280;29213;50.770;7.298;2023-02-07T09:30:46;103258.56;;;-0.61;55.61
43621;BME280;29213;50.770;7.298;2023-02-07T09:33:13;103209.44;;;-1.01;55.63
43621;BME280;29213;50.770;7.298;2023-02-07T09:35:41;103155.72;;;-1.24;55.54
43621;BME280;29213;50.770;7.298;2023-02-07T09:38:11;103194.59;;;-0.99;55.62
43621;BME280;29213;50.770;7.298;2023-02-07T09:40:37;103219.56;;;-0.78;55.36
43621;BME280;29213;50.770;7.298;2023-02-07T09:46:17;103239.19;;;-0.50;55.39
43621;BME280;29213;50.770;7.298;2023-02-07T09:48:45;103239.25;;;-0.55;54.92
43621;BME280;29213;50.770;7.298;2023-02-07T09:51:12;103214.13;;;-0.67;55.11
43621;BME280;29213;50.770;7.298;2023-02-07T09:53:49;103243.31;;;-0.35;55.04
43621;BME280;29213;50.770;7.298;2023-02-07T09:56:17;103177.81;;;-0.87;54.58
43621;BME280;29213;50.770;7.298;2023-02-07T09:58:45;103239.72;;;-0.31;54.66
43621;BME280;29213;50.770;7.298;2023-02-07T10:01:19;103167.75;;;-0.57;53.92
43621;BME280;29213;50.770;7.298;2023-02-07T10:06:33;103247.47;;;0.24;53.91
43621;BME280;29213;50.770;7.298;2023-02-07T10:09:01;103163.38;;;-0.09;53.72
43621;BME280;29213;50.770;7.298;2023-02-07T10:14:21;103225.38;;;0.37;50.88
43621;BME280;29213;50.770;7.298;2023-02-07T10:20:04;103140.72;;;-0.59;49.00
43621;BME280;29213;50.770;7.298;2023-02-07T10:22:53;103222.47;;;0.06;49.08
43621;BME280;29213;50.770;7.298;2023-02-07T10:30:35;103205.84;;;0.51;48.92
43621;BME280;29213;50.770;7.298;2023-02-07T10:33:13;103228.69;;;0.46;47.16
43621;BME280;29213;50.770;7.298;2023-02-07T10:35:40;103119.88;;;-0.17;48.21
43621;BME280;29213;50.770;7.298;2023-02-07T10:38:27;103190.84;;;0.15;45.99
43621;BME280;29213;50.770;7.298;2023-02-07T10:41:37;103183.03;;;0.13;47.57
43621;BME280;29213;50.770;7.298;2023-02-07T10:44:03;103175.25;;;0.09;46.30
43621;BME280;29213;50.770;7.298;2023-02-07T10:46:29;103108.75;;;-0.30;46.80
43621;BME280;29213;50.770;7.298;2023-02-07T10:48:54;103207.50;;;0.57;47.59
43621;BME280;29213;50.770;7.298;2023-02-07T10:51:25;103188.56;;;0.81;47.75
43621;BME280;29213;50.770;7.298;2023-02-07T10:54:14;103179.41;;;1.00;46.47
43621;BME280;29213;50.770;7.298;2023-02-07T10:56:45;103204.75;;;1.37;45.07
43621;BME280;29213;50.770;7.298;2023-02-07T10:59:31;103211.03;;;1.31;43.86
43621;BME280;29213;50.770;7.298;2023-02-07T11:01:59;103202.66;;;1.52;44.33
43621;BME280;29213;50.770;7.298;2023-02-07T11:04:35;103163.06;;;1.25;40.95
43621;BME280;29213;50.770;7.298;2023-02-07T11:07:03;103175.06;;;0.99;42.36
43621;BME280;29213;50.770;7.298;2023-02-07T11:09:29;103214.31;;;1.40;44.29
43621;BME280;29213;50.770;7.298;2023-02-07T11:11:54;103078.63;;;1.07;46.13
43621;BME280;29213;50.770;7.298;2023-02-07T11:14:22;103186.38;;;1.70;42.75
43621;BME280;29213;50.770;7.298;2023-02-07T11:16:56;103215.78;;;2.20;43.61
43621;BME280;29213;50.770;7.298;2023-02-07T11:19:27;103166.00;;;1.47;40.46
43621;BME280;29213;50.770;7.298;2023-02-07T11:22:17;103176.75;;;1.38;40.19
43621;BME280;29213;50.770;7.298;2023-02-07T11:24:44;103123.94;;;1.15;41.38
43621;BME280;29213;50.770;7.298;2023-02-07T11:27:15;103179.75;;;1.57;40.18
43621;BME280;29213;50.770;7.298;2023-02-07T11:30:03;103204.53;;;1.46;38.99
43621;BME280;29213;50.770;7.298;2023-02-07T11:32:29;103190.19;;;1.60;39.57
43621;BME280;29213;50.770;7.298;2023-02-07T11:34:59;103200.03;;;1.85;39.29
43621;BME280;29213;50.770;7.298;2023-02-07T11:37:37;103199.22;;;1.83;39.66
43621;BME280;29213;50.770;7.298;2023-02-07T11:42:43;103200.66;;;1.93;39.00
43621;BME280;29213;50.770;7.298;2023-02-07T11:45:14;103184.19;;;1.88;39.25
43621;BME280;29213;50.770;7.298;2023-02-07T11:47:42;103093.56;;;1.38;39.72
43621;BME280;29213;50.770;7.298;2023-02-07T11:50:17;103198.38;;;2.14;39.93
43621;BME280;29213;50.770;7.298;2023-02-07T11:52:49;103164.97;;;2.18;39.46
43621;BME280;29213;50.770;7.298;2023-02-07T11:55:21;103164.19;;;2.14;39.69
43621;BME280;29213;50.770;7.298;2023-02-07T11:57:48;103088.84;;;1.83;38.40
43621;BME280;29213;50.770;7.298;2023-02-07T12:02:57;103189.34;;;2.83;38.24
43621;BME280;29213;50.770;7.298;2023-02-07T12:05:27;103024.72;;;1.88;38.00
43621;BME280;29213;50.770;7.298;2023-02-07T12:07:58;103146.69;;;2.43;37.87
43621;BME280;29213;50.770;7.298;2023-02-07T12:10:29;103187.63;;;2.52;38.06
43621;BME280;29213;50.770;7.298;2023-02-07T12:13:06;103187.28;;;2.64;38.15
43621;BME280;29213;50.770;7.298;2023-02-07T12:15:52;103171.22;;;3.01;38.75
43621;BME280;29213;50.770;7.298;2023-02-07T12:18:27;103162.56;;;2.97;36.83
43621;BME280;29213;50.770;7.298;2023-02-07T12:21:08;103070.31;;;2.46;37.32
43621;BME280;29213;50.770;7.298;2023-02-07T12:23:59;103118.03;;;2.62;36.93
43621;BME280;29213;50.770;7.298;2023-02-07T12:26:42;103123.78;;;2.75;36.67
43621;BME280;29213;50.770;7.298;2023-02-07T12:32:39;103017.50;;;2.79;36.91
43621;BME280;29213;50.770;7.298;2023-02-07T12:35:13;103172.06;;;4.05;37.20
43621;BME280;29213;50.770;7.298;2023-02-07T12:37:51;103151.75;;;4.31;35.99
43621;BME280;29213;50.770;7.298;2023-02-07T12:40:36;103128.66;;;4.13;35.31
43621;BME280;29213;50.770;7.298;2023-02-07T12:43:23;103145.47;;;4.33;34.67
43621;BME280;29213;50.770;7.298;2023-02-07T12:48:57;103156.47;;;4.22;33.73
43621;BME280;29213;50.770;7.298;2023-02-07T12:51:43;103145.16;;;4.19;31.90
43621;BME280;29213;50.770;7.298;2023-02-07T12:54:27;103144.78;;;4.28;32.34
43621;BME280;29213;50.770;7.298;2023-02-07T12:57:14;103110.44;;;4.29;32.55
43621;BME280;29213;50.770;7.298;2023-02-07T13:00:08;103119.84;;;4.61;32.17
43621;BME280;29213;50.770;7.298;2023-02-07T13:08:14;103128.03;;;5.39;33.35
43621;BME280;29213;50.770;7.298;2023-02-07T13:16:49;103127.84;;;5.84;32.16
43621;BME280;29213;50.770;7.298;2023-02-07T13:22:46;103101.16;;;5.69;30.98
43621;BME280;29213;50.770;7.298;2023-02-07T13:25:21;103098.63;;;6.06;31.84
43621;BME280;29213;50.770;7.298;2023-02-07T13:27:48;103093.75;;;5.97;30.16
43621;BME280;29213;50.770;7.298;2023-02-07T13:30:18;103054.47;;;5.68;30.47
43621;BME280;29213;50.770;7.298;2023-02-07T13:32:46;103091.53;;;6.07;30.74
43621;BME280;29213;50.770;7.298;2023-02-07T13:35:24;103109.03;;;6.48;30.25
43621;BME280;29213;50.770;7.298;2023-02-07T13:37:58;103013.25;;;6.02;29.09
43621;BME280;29213;50.770;7.298;2023-02-07T13:40:36;103097.78;;;6.79;29.78
43621;BME280;29213;50.770;7.298;2023-02-07T13:43:37;103106.44;;;7.18;28.73
43621;BME280;29213;50.770;7.298;2023-02-07T13:46:38;103106.97;;;7.07;29.85
43621;BME280;29213;50.770;7.298;2023-02-07T13:51:56;103084.84;;;6.55;28.85
43621;BME280;29213;50.770;7.298;2023-02-07T13:54:38;103086.69;;;5.97;29.50
43621;BME280;29213;50.770;7.298;2023-02-07T13:57:18;103073.94;;;5.86;29.82
43621;BME280;29213;50.770;7.298;2023-02-07T14:03:03;103113.88;;;5.61;28.51
43621;BME280;29213;50.770;7.298;2023-02-07T14:05:47;103097.78;;;5.66;31.48
43621;BME280;29213;50.770;7.298;2023-02-07T14:10:49;103061.03;;;4.57;29.00
43621;BME280;29213;50.770;7.298;2023-02-07T14:16:16;103118.44;;;5.36;31.08
43621;BME280;29213;50.770;7.298;2023-02-07T14:19:01;103111.09;;;5.64;31.35
43621;BME280;29213;50.770;7.298;2023-02-07T14:21:29;103116.50;;;6.01;31.25
43621;BME280;29213;50.770;7.298;2023-02-07T14:24:16;103111.56;;;6.12;30.84
43621;BME280;29213;50.770;7.298;2023-02-07T14:26:57;103100.75;;;6.17;30.36
43621;BME280;29213;50.770;7.298;2023-02-07T14:34:16;103106.28;;;6.68;28.48